Time;durP1;ratioP1;P1;durP2;ratioP2;P2;SDS_P1;SDS_P2;PMS_P1;PMS_P2;Temp;Humidity;BMP_temperature;BMP_pressure;BME280_temperature;BME280_humidity;BME280_pressure;Samples;Min_cycle;Max_cycle;Signal;HPM_P1;HPM_P2
2023/03/29 00:00:58;;;;;;;2.28;1.50;;;;;;;;;;6006902;23;20036;-78
2023/03/29 00:03:26;;;;;;;3.90;1.98;;;;;;;;;;6013548;23;20030;-79
2023/03/29 00:06:01;;;;;;;3.38;2.17;;;;;;;;;;6012837;23;20026;-81
2023/03/29 00:08:30;;;;;;;2.70;1.80;;;;;;;;;;6017873;23;20027;-82
2023/03/29 00:10:58;;;;;;;2.78;1.80;;;;;;;;;;6016967;23;20023;-81
2023/03/29 00:13:26;;;;;;;2.03;1.63;;;;;;;;;;6020109;23;20050;-81
2023/03/29 00:15:53;;;;;;;3.65;1.85;;;;;;;;;;6018092;23;20061;-80
2023/03/29 00:18:20;;;;;;;3.28;1.55;;;;;;;;;;6019161;23;20037;-82
2023/03/29 00:20:57;;;;;;;2.80;2.25;;;;;;;;;;6042781;23;20070;-83
2023/03/29 00:23:24;;;;;;;2.75;2.10;;;;;;;;;;6018623;23;20026;-83
2023/03/29 00:25:54;;;;;;;2.03;1.73;;;;;;;;;;6041327;23;20054;-81
2023/03/29 00:28:21;;;;;;;3.40;2.00;;;;;;;;;;6019231;23;20102;-81
2023/03/29 00:30:51;;;;;;;4.53;2.03;;;;;;;;;;6041058;23;20041;-81
2023/03/29 00:33:22;;;;;;;2.17;1.85;;;;;;;;;;6027120;23;20027;-78
2023/03/29 00:35:52;;;;;;;2.28;1.63;;;;;;;;;;5994820;23;20023;-78
2023/03/29 00:38:18;;;;;;;2.53;1.75;;;;;;;;;;5994805;23;20019;-78
2023/03/29 00:40:45;;;;;;;2.92;1.55;;;;;;;;;;5993483;23;20031;-79
2023/03/29 00:43:13;;;;;;;2.70;1.83;;;;;;;;;;5993460;23;20164;-77
2023/03/29 00:45:40;;;;;;;2.70;1.80;;;;;;;;;;5992950;23;20026;-80
2023/03/29 00:48:09;;;;;;;5.55;1.90;;;;;;;;;;6017096;23;20057;-78
2023/03/29 00:50:47;;;;;;;4.13;2.05;;;;;;;;;;5993484;23;20078;-79
2023/03/29 00:53:25;;;;;;;2.28;1.95;;;;;;;;;;5993645;23;20030;-79
2023/03/29 00:56:23;;;;;;;2.75;2.38;;;;;;;;;;5994963;23;20027;-79
2023/03/29 00:58:58;;;;;;;2.90;2.10;;;;;;;;;;6040485;23;20045;-79
2023/03/29 01:01:49;;;;;;;2.90;1.90;;;;;;;;;;6016404;23;20023;-79
2023/03/29 01:04:30;;;;;;;3.20;2.13;;;;;;;;;;5997821;23;20026;-79
2023/03/29 01:07:12;;;;;;;3.35;2.20;;;;;;;;;;5994824;23;20019;-79
2023/03/29 01:09:41;;;;;;;4.00;2.20;;;;;;;;;;5995300;23;20061;-78
2023/03/29 01:12:12;;;;;;;3.47;1.83;;;;;;;;;;5994026;23;20358;-79
2023/03/29 01:14:45;;;;;;;2.58;2.10;;;;;;;;;;5995189;23;20477;-79
2023/03/29 01:17:12;;;;;;;3.40;2.20;;;;;;;;;;5995169;23;20022;-80
2023/03/29 01:19:52;;;;;;;3.22;2.08;;;;;;;;;;6042203;23;20358;-79
2023/03/29 01:22:21;;;;;;;4.70;2.65;;;;;;;;;;5994570;23;20034;-78
2023/03/29 01:25:10;;;;;;;3.85;2.20;;;;;;;;;;6065188;23;20023;-79
2023/03/29 01:28:03;;;;;;;2.88;2.17;;;;;;;;;;6068268;23;20023;-78
2023/03/29 01:30:38;;;;;;;4.53;2.08;;;;;;;;;;5996173;23;20027;-78
2023/03/29 01:33:07;;;;;;;2.40;1.90;;;;;;;;;;5996472;23;20038;-79
2023/03/29 01:35:41;;;;;;;2.45;2.10;;;;;;;;;;6019306;23;20027;-78
2023/03/29 01:38:24;;;;;;;3.92;2.50;;;;;;;;;;5996004;23;20059;-78
2023/03/29 01:40:51;;;;;;;;;;;;;;;;;;6020985;23;20019;-78
2023/03/29 01:43:36;;;;;;;2.53;2.05;;;;;;;;;;6018500;23;19917;-79
2023/03/29 01:46:25;;;;;;;2.40;1.92;;;;;;;;;;5998567;23;20029;-78
2023/03/29 01:49:00;;;;;;;3.80;2.00;;;;;;;;;;6023838;23;20029;-79
2023/03/29 01:51:54;;;;;;;1.95;1.80;;;;;;;;;;5996055;23;20462;-80
2023/03/29 01:54:25;;;;;;;4.50;2.13;;;;;;;;;;6012765;23;20026;-80
2023/03/29 01:56:51;;;;;;;3.72;2.03;;;;;;;;;;5996179;23;20029;-79
2023/03/29 01:59:25;;;;;;;2.85;2.08;;;;;;;;;;5995678;23;20042;-79
2023/03/29 02:01:53;;;;;;;2.15;1.95;;;;;;;;;;5995717;23;20521;-79
2023/03/29 02:04:24;;;;;;;3.35;2.20;;;;;;;;;;5996183;23;20049;-79
2023/03/29 02:06:53;;;;;;;3.08;2.13;;;;;;;;;;6018755;23;20015;-80
2023/03/29 02:09:20;;;;;;;3.35;2.50;;;;;;;;;;6018869;23;20099;-80
2023/03/29 02:11:46;;;;;;;2.55;2.28;;;;;;;;;;6003030;23;20023;-79
2023/03/29 02:14:14;;;;;;;3.40;1.70;;;;;;;;;;5995618;23;20102;-80
2023/03/29 02:16:41;;;;;;;3.05;2.42;;;;;;;;;;5995740;23;20034;-80
2023/03/29 02:19:07;;;;;;;1.90;1.70;;;;;;;;;;5995268;23;20465;-79
2023/03/29 02:21:40;;;;;;;1.92;1.73;;;;;;;;;;6017806;23;20106;-78
2023/03/29 02:24:08;;;;;;;1.83;1.60;;;;;;;;;;6065870;23;20488;-78
2023/03/29 02:26:35;;;;;;;2.70;2.50;;;;;;;;;;5995623;23;20074;-79
2023/03/29 02:29:02;;;;;;;3.13;1.75;;;;;;;;;;5994850;23;20023;-79
2023/03/29 02:31:40;;;;;;;3.08;2.35;;;;;;;;;;6018177;23;20022;-79
2023/03/29 02:34:29;;;;;;;2.50;2.10;;;;;;;;;;5996468;23;20027;-79
2023/03/29 02:36:58;;;;;;;6.00;2.22;;;;;;;;;;6017880;23;20022;-80
2023/03/29 02:39:26;;;;;;;3.05;1.95;;;;;;;;;;5995250;23;20037;-79
2023/03/29 02:41:53;;;;;;;4.93;1.80;;;;;;;;;;5994513;23;20029;-77
2023/03/29 02:44:22;;;;;;;2.05;1.73;;;;;;;;;;5994658;23;20105;-79
2023/03/29 02:46:50;;;;;;;2.45;1.77;;;;;;;;;;5994818;23;20353;-77
2023/03/29 02:49:17;;;;;;;2.03;1.83;;;;;;;;;;5994817;23;20378;-78
2023/03/29 02:51:43;;;;;;;2.42;1.70;;;;;;;;;;5993621;23;20029;-78
2023/03/29 02:54:14;;;;;;;2.35;2.00;;;;;;;;;;6017806;23;20110;-81
2023/03/29 02:56:54;;;;;;;2.35;1.95;;;;;;;;;;6040979;23;20027;-78
2023/03/29 02:59:21;;;;;;;2.17;1.60;;;;;;;;;;5996353;23;20025;-78
2023/03/29 03:01:48;;;;;;;3.17;1.80;;;;;;;;;;5994246;23;20030;-78
2023/03/29 03:04:17;;;;;;;3.38;1.92;;;;;;;;;;5994371;23;20485;-77
2023/03/29 03:06:44;;;;;;;4.15;3.15;;;;;;;;;;6017454;23;20027;-77
2023/03/29 03:09:10;;;;;;;6.65;4.65;;;;;;;;;;6041065;23;20033;-77
2023/03/29 03:11:37;;;;;;;3.40;3.03;;;;;;;;;;6017242;23;20045;-77
2023/03/29 03:14:06;;;;;;;5.38;2.42;;;;;;;;;;5994623;23;20026;-77
2023/03/29 03:16:33;;;;;;;3.38;2.40;;;;;;;;;;5993858;23;20098;-78
2023/03/29 03:19:00;;;;;;;4.78;2.55;;;;;;;;;;5994215;23;20423;-79
2023/03/29 03:21:27;;;;;;;3.60;2.20;;;;;;;;;;5994336;23;20048;-79
2023/03/29 03:23:54;;;;;;;3.38;1.90;;;;;;;;;;5994602;23;20026;-79
2023/03/29 03:26:23;;;;;;;2.58;2.10;;;;;;;;;;5995038;23;20029;-80
2023/03/29 03:28:50;;;;;;;2.85;1.67;;;;;;;;;;5995750;23;20082;-77
2023/03/29 03:31:18;;;;;;;4.68;2.40;;;;;;;;;;6016982;23;20050;-75
2023/03/29 03:33:45;;;;;;;2.08;1.88;;;;;;;;;;6017557;23;20034;-78
2023/03/29 03:36:12;;;;;;;3.33;2.25;;;;;;;;;;6017262;23;20054;-77
2023/03/29 03:38:40;;;;;;;3.53;1.90;;;;;;;;;;5994401;23;20093;-78
2023/03/29 03:41:07;;;;;;;5.85;1.80;;;;;;;;;;5994720;23;20027;-79
2023/03/29 03:43:35;;;;;;;2.15;1.95;;;;;;;;;;5994893;23;20022;-78
2023/03/29 03:46:01;;;;;;;3.75;2.10;;;;;;;;;;5997016;23;20023;-80
2023/03/29 03:48:28;;;;;;;2.28;1.88;;;;;;;;;;5998412;23;20129;-80
2023/03/29 03:50:57;;;;;;;3.45;2.13;;;;;;;;;;6019929;23;20118;-80
2023/03/29 03:53:25;;;;;;;2.10;1.75;;;;;;;;;;5996748;23;20030;-79
2023/03/29 03:55:54;;;;;;;7.07;2.42;;;;;;;;;;5995054;23;20030;-79
2023/03/29 03:58:22;;;;;;;4.78;2.97;;;;;;;;;;6017882;23;20019;-79
2023/03/29 04:00:50;;;;;;;4.47;2.28;;;;;;;;;;5993506;23;20401;-80
2023/03/29 04:03:16;;;;;;;3.38;1.92;;;;;;;;;;5993445;23;20023;-79
2023/03/29 04:05:44;;;;;;;2.55;2.20;;;;;;;;;;5993833;23;20504;-79
2023/03/29 04:08:12;;;;;;;5.85;2.20;;;;;;;;;;5994965;23;20346;-78
2023/03/29 04:10:40;;;;;;;4.43;2.10;;;;;;;;;;5994297;23;20093;-78
2023/03/29 04:13:07;;;;;;;2.90;1.95;;;;;;;;;;5994253;23;20027;-79
2023/03/29 04:15:37;;;;;;;5.43;1.90;;;;;;;;;;6017409;23;20491;-78
2023/03/29 04:18:06;;;;;;;3.92;1.80;;;;;;;;;;5996646;23;20022;-79
2023/03/29 04:20:33;;;;;;;4.25;1.85;;;;;;;;;;5995282;23;20027;-80
2023/03/29 04:23:00;;;;;;;4.32;1.73;;;;;;;;;;5994810;23;20026;-78
2023/03/29 04:25:27;;;;;;;1.73;1.45;;;;;;;;;;5994881;23;20071;-80
2023/03/29 04:27:54;;;;;;;4.50;2.13;;;;;;;;;;6018256;23;20398;-79
2023/03/29 04:30:21;;;;;;;4.90;1.50;;;;;;;;;;5995838;23;20102;-80
2023/03/29 04:32:48;;;;;;;2.92;2.10;;;;;;;;;;5999149;23;20058;-79
2023/03/29 04:35:15;;;;;;;3.03;1.92;;;;;;;;;;6018852;23;20023;-80
2023/03/29 04:37:42;;;;;;;4.30;2.50;;;;;;;;;;5995407;23;20101;-80
2023/03/29 04:40:13;;;;;;;3.42;2.15;;;;;;;;;;6018099;23;20026;-80
2023/03/29 04:42:44;;;;;;;3.03;2.13;;;;;;;;;;5997464;23;20031;-80
2023/03/29 04:45:16;;;;;;;2.70;2.03;;;;;;;;;;6020500;23;20362;-80
2023/03/29 04:47:44;;;;;;;2.58;1.70;;;;;;;;;;6020387;23;20019;-80
2023/03/29 04:50:11;;;;;;;2.35;1.90;;;;;;;;;;5995538;23;20086;-80
2023/03/29 04:52:38;;;;;;;4.22;3.15;;;;;;;;;;5996021;23;20023;-80
2023/03/29 04:55:06;;;;;;;3.35;2.83;;;;;;;;;;5995710;23;20030;-82
2023/03/29 04:57:33;;;;;;;3.22;2.40;;;;;;;;;;5995549;23;20023;-80
2023/03/29 05:00:00;;;;;;;4.05;2.42;;;;;;;;;;5995722;23;20023;-80
2023/03/29 05:02:29;;;;;;;2.30;1.90;;;;;;;;;;5994782;23;20101;-80
2023/03/29 05:04:56;;;;;;;4.47;2.00;;;;;;;;;;5995345;23;20037;-80
2023/03/29 05:07:23;;;;;;;3.25;2.15;;;;;;;;;;5994676;23;20295;-79
2023/03/29 05:09:50;;;;;;;3.03;2.00;;;;;;;;;;5994691;23;20026;-80
2023/03/29 05:12:17;;;;;;;3.60;2.42;;;;;;;;;;6018164;23;20034;-80
2023/03/29 05:14:44;;;;;;;2.72;2.08;;;;;;;;;;5993636;23;20023;-77
2023/03/29 05:17:11;;;;;;;2.70;1.73;;;;;;;;;;5993472;23;20027;-77
2023/03/29 05:19:37;;;;;;;3.22;2.28;;;;;;;;;;5993279;23;20065;-77
2023/03/29 05:22:04;;;;;;;2.13;1.50;;;;;;;;;;6039829;23;20438;-78
2023/03/29 05:24:31;;;;;;;4.85;1.95;;;;;;;;;;5993735;23;20023;-78
2023/03/29 05:26:58;;;;;;;2.30;1.58;;;;;;;;;;6001362;23;20027;-78
2023/03/29 05:29:24;;;;;;;2.65;1.60;;;;;;;;;;6002397;23;20015;-78
2023/03/29 05:31:51;;;;;;;2.38;1.88;;;;;;;;;;6017071;23;20408;-79
2023/03/29 05:34:18;;;;;;;2.53;1.90;;;;;;;;;;5993730;23;20030;-79
2023/03/29 05:36:45;;;;;;;2.00;1.80;;;;;;;;;;6018419;23;20108;-79
2023/03/29 05:39:12;;;;;;;4.03;2.10;;;;;;;;;;5993672;23;20094;-78
2023/03/29 05:41:40;;;;;;;5.70;2.30;;;;;;;;;;6040404;23;20102;-79
2023/03/29 05:44:07;;;;;;;7.80;2.47;;;;;;;;;;5994259;23;20023;-79
2023/03/29 05:46:34;;;;;;;3.08;1.83;;;;;;;;;;6018106;23;20022;-79
2023/03/29 05:49:01;;;;;;;5.15;2.40;;;;;;;;;;5994197;23;20422;-79
2023/03/29 05:51:28;;;;;;;5.30;2.28;;;;;;;;;;5995668;23;20023;-79
2023/03/29 05:53:55;;;;;;;3.20;1.80;;;;;;;;;;5999573;23;20054;-78
2023/03/29 05:56:21;;;;;;;3.60;2.47;;;;;;;;;;6018184;23;20022;-79
2023/03/29 05:58:49;;;;;;;3.33;1.67;;;;;;;;;;5995088;23;20659;-80
2023/03/29 06:01:17;;;;;;;6.80;2.03;;;;;;;;;;5996412;23;20101;-79
2023/03/29 06:03:47;;;;;;;3.78;1.80;;;;;;;;;;5994537;23;20023;-78
2023/03/29 06:06:15;;;;;;;3.47;1.52;;;;;;;;;;6016558;23;20090;-78
2023/03/29 06:08:42;;;;;;;3.35;1.73;;;;;;;;;;6015983;23;20051;-89
2023/03/29 06:11:11;;;;;;;3.33;1.75;;;;;;;;;;6018537;23;20501;-79
2023/03/29 06:13:37;;;;;;;2.55;1.55;;;;;;;;;;6018801;23;20033;-80
2023/03/29 06:16:05;;;;;;;4.60;1.80;;;;;;;;;;6022900;23;20512;-80
2023/03/29 06:18:32;;;;;;;4.03;1.90;;;;;;;;;;5998420;23;20030;-80
2023/03/29 06:21:01;;;;;;;5.88;2.10;;;;;;;;;;5999199;23;20026;-81
2023/03/29 06:23:29;;;;;;;3.53;1.73;;;;;;;;;;6002145;23;20022;-79
2023/03/29 06:25:56;;;;;;;3.20;1.80;;;;;;;;;;5997830;23;20098;-79
2023/03/29 06:28:23;;;;;;;2.88;1.85;;;;;;;;;;6023623;23;20019;-81
2023/03/29 06:30:50;;;;;;;2.53;2.00;;;;;;;;;;6002106;23;20026;-79
2023/03/29 06:33:17;;;;;;;6.80;2.20;;;;;;;;;;6025645;23;20030;-80
2023/03/29 06:35:45;;;;;;;5.18;3.28;;;;;;;;;;6002709;23;20026;-80
2023/03/29 06:38:14;;;;;;;2.88;1.88;;;;;;;;;;6002409;23;20406;-80
2023/03/29 06:40:41;;;;;;;4.70;2.28;;;;;;;;;;6002072;23;20410;-81
2023/03/29 06:43:09;;;;;;;4.40;2.97;;;;;;;;;;6000535;23;20037;-80
2023/03/29 06:45:36;;;;;;;4.47;2.72;;;;;;;;;;6002213;23;20115;-82
2023/03/29 06:48:04;;;;;;;5.95;2.80;;;;;;;;;;6001811;23;20026;-76
2023/03/29 06:50:31;;;;;;;4.97;2.83;;;;;;;;;;6001579;23;20023;-81
2023/03/29 06:52:58;;;;;;;3.15;2.65;;;;;;;;;;5987390;23;20029;-84
2023/03/29 06:55:26;;;;;;;5.45;3.10;;;;;;;;;;5997069;23;20077;-81
2023/03/29 06:57:53;;;;;;;5.90;3.28;;;;;;;;;;5998471;23;20034;-81
2023/03/29 07:00:29;;;;;;;7.53;3.25;;;;;;;;;;5998349;23;20437;-80
2023/03/29 07:02:57;;;;;;;5.45;3.20;;;;;;;;;;5998896;23;20109;-80
2023/03/29 07:05:27;;;;;;;3.92;3.00;;;;;;;;;;5996844;23;20030;-80
2023/03/29 07:08:12;;;;;;;5.40;2.83;;;;;;;;;;5996798;23;20129;-79
2023/03/29 07:10:46;;;;;;;6.45;2.78;;;;;;;;;;6001486;23;20029;-79
2023/03/29 07:13:14;;;;;;;3.67;2.38;;;;;;;;;;5997047;23;20365;-80
2023/03/29 07:15:42;;;;;;;5.57;2.67;;;;;;;;;;5993640;23;20058;-80
2023/03/29 07:18:09;;;;;;;8.88;3.55;;;;;;;;;;5993175;23;20361;-79
2023/03/29 07:20:37;;;;;;;3.58;2.63;;;;;;;;;;5994327;23;20026;-81
2023/03/29 07:23:05;;;;;;;4.35;2.83;;;;;;;;;;5995262;23;20023;-81
2023/03/29 07:25:32;;;;;;;7.60;1.48;;;;;;;;;;5996272;23;20074;-74
2023/03/29 07:27:59;;;;;;;2.97;1.58;;;;;;;;;;6018142;23;20399;-80
2023/03/29 07:30:28;;;;;;;3.60;1.48;;;;;;;;;;6016896;23;20022;-75
2023/03/29 07:32:57;;;;;;;3.88;1.45;;;;;;;;;;5994750;23;20094;-75
2023/03/29 07:35:25;;;;;;;2.42;1.80;;;;;;;;;;5995807;23;20022;-80
2023/03/29 07:37:54;;;;;;;7.15;1.52;;;;;;;;;;5999063;23;20097;-80
2023/03/29 07:40:24;;;;;;;5.05;1.27;;;;;;;;;;5999146;23;20529;-80
2023/03/29 07:42:53;;;;;;;3.47;1.40;;;;;;;;;;6000683;23;20533;-81
2023/03/29 07:45:22;;;;;;;2.60;1.30;;;;;;;;;;5999169;23;20057;-80
2023/03/29 07:47:53;;;;;;;;;;;;;;;;;;6003162;23;20094;-80
2023/03/29 07:50:20;;;;;;;2.00;1.02;;;;;;;;;;6020023;23;19956;-80
2023/03/29 07:52:48;;;;;;;4.47;1.40;;;;;;;;;;6020529;23;20033;-80
2023/03/29 07:55:15;;;;;;;4.15;1.58;;;;;;;;;;6021092;23;20034;-80
2023/03/29 07:57:43;;;;;;;3.72;1.42;;;;;;;;;;6019477;23;20102;-80
2023/03/29 08:00:14;;;;;;;3.05;1.50;;;;;;;;;;5996659;23;20027;-80
2023/03/29 08:02:43;;;;;;;7.65;2.08;;;;;;;;;;5999814;23;20034;-80
2023/03/29 08:05:14;;;;;;;3.65;1.80;;;;;;;;;;5996822;23;20033;-80
2023/03/29 08:07:49;;;;;;;3.90;1.70;;;;;;;;;;6002186;23;20027;-81
2023/03/29 08:10:17;;;;;;;4.13;2.30;;;;;;;;;;5996211;23;20457;-81
2023/03/29 08:12:46;;;;;;;1.92;1.40;;;;;;;;;;5996448;23;20023;-80
2023/03/29 08:15:13;;;;;;;1.88;1.17;;;;;;;;;;6020428;23;20098;-80
2023/03/29 08:17:41;;;;;;;4.90;1.67;;;;;;;;;;5996182;23;20026;-80
2023/03/29 08:20:11;;;;;;;2.53;1.38;;;;;;;;;;5995880;23;20019;-80
2023/03/29 08:22:38;;;;;;;2.95;1.98;;;;;;;;;;5995972;23;20134;-80
2023/03/29 08:25:06;;;;;;;3.38;1.75;;;;;;;;;;5996410;23;20406;-80
2023/03/29 08:27:33;;;;;;;1.70;1.48;;;;;;;;;;5999128;23;20027;-80
2023/03/29 08:30:00;;;;;;;3.30;1.80;;;;;;;;;;5999898;23;20066;-81
2023/03/29 08:32:27;;;;;;;5.10;1.90;;;;;;;;;;5998734;23;20065;-80
2023/03/29 08:34:54;;;;;;;4.13;1.60;;;;;;;;;;6022756;23;20027;-81
2023/03/29 08:37:23;;;;;;;4.43;1.88;;;;;;;;;;6022934;23;20062;-81
2023/03/29 08:39:50;;;;;;;3.70;1.92;;;;;;;;;;6001156;23;20025;-81
2023/03/29 08:42:39;;;;;;;3.88;1.80;;;;;;;;;;6021165;23;20406;-80
2023/03/29 08:45:06;;;;;;;4.28;1.70;;;;;;;;;;6066435;23;20018;-81
2023/03/29 08:47:51;;;;;;;4.68;1.40;;;;;;;;;;6067735;23;20057;-80
2023/03/29 08:50:20;;;;;;;1.42;1.20;;;;;;;;;;6021040;23;20019;-80
2023/03/29 08:52:54;;;;;;;2.45;1.13;;;;;;;;;;5994965;23;20489;-80
2023/03/29 08:55:30;;;;;;;2.17;1.15;;;;;;;;;;6042130;23;20031;-80
2023/03/29 08:57:58;;;;;;;1.58;1.13;;;;;;;;;;6066095;23;20123;-81
2023/03/29 09:00:36;;;;;;;1.58;1.08;;;;;;;;;;5995279;23;20030;-80
2023/03/29 09:03:10;;;;;;;2.22;1.15;;;;;;;;;;5995559;23;20023;-80
2023/03/29 09:05:40;;;;;;;2.47;1.42;;;;;;;;;;5996339;23;20029;-80
2023/03/29 09:08:16;;;;;;;5.35;1.60;;;;;;;;;;6023156;23;20530;-81
2023/03/29 09:11:03;;;;;;;5.55;1.60;;;;;;;;;;6004457;23;20026;-80
2023/03/29 09:13:40;;;;;;;2.40;1.13;;;;;;;;;;6038996;23;20038;-81
2023/03/29 09:16:26;;;;;;;6.00;1.40;;;;;;;;;;6045313;23;20026;-81
2023/03/29 09:19:10;;;;;;;2.90;1.45;;;;;;;;;;6090644;23;20027;-81
2023/03/29 09:22:07;;;;;;;2.53;1.50;;;;;;;;;;6067551;23;20054;-81
2023/03/29 09:24:37;;;;;;;4.75;1.67;;;;;;;;;;6031322;23;20358;-80
2023/03/29 09:27:26;;;;;;;1.20;1.10;;;;;;;;;;6090887;23;20034;-81
2023/03/29 09:30:13;;;;;;;2.67;1.60;;;;;;;;;;6044429;23;20019;-78
2023/03/29 09:32:58;;;;;;;3.03;0.98;;;;;;;;;;6067648;23;20015;-78
2023/03/29 09:35:31;;;;;;;1.33;1.02;;;;;;;;;;6045619;23;20027;-80
2023/03/29 09:37:57;;;;;;;5.20;1.60;;;;;;;;;;6010580;23;20023;-80
2023/03/29 09:40:38;;;;;;;2.17;1.92;;;;;;;;;;5994727;23;20019;-80
2023/03/29 09:43:07;;;;;;;2.78;1.52;;;;;;;;;;6018343;23;20473;-81
2023/03/29 09:45:37;;;;;;;2.97;1.42;;;;;;;;;;6018468;23;20054;-81
2023/03/29 09:48:16;;;;;;;3.53;1.20;;;;;;;;;;5994159;23;20466;-80
2023/03/29 09:50:50;;;;;;;4.68;1.40;;;;;;;;;;5989278;23;20023;-81
2023/03/29 09:53:17;;;;;;;5.18;1.83;;;;;;;;;;5993765;23;20027;-81
2023/03/29 09:55:45;;;;;;;5.38;1.27;;;;;;;;;;5995913;23;20018;-81
2023/03/29 09:58:23;;;;;;;3.42;1.38;;;;;;;;;;5997682;23;20027;-81
2023/03/29 10:00:50;;;;;;;2.25;1.20;;;;;;;;;;5995406;23;20069;-81
2023/03/29 10:03:26;;;;;;;2.88;1.20;;;;;;;;;;5994948;23;20078;-77
2023/03/29 10:05:54;;;;;;;3.05;1.20;;;;;;;;;;5994574;23;20053;-81
2023/03/29 10:08:26;;;;;;;2.55;1.40;;;;;;;;;;5992923;23;20057;-82
2023/03/29 10:10:56;;;;;;;3.92;1.30;;;;;;;;;;5994241;23;20027;-80
2023/03/29 10:13:31;;;;;;;2.58;1.17;;;;;;;;;;5993611;23;20023;-80
2023/03/29 10:16:06;;;;;;;1.65;1.20;;;;;;;;;;6017587;23;20027;-80
2023/03/29 10:18:42;;;;;;;1.80;1.33;;;;;;;;;;5994164;23;20027;-81
2023/03/29 10:21:16;;;;;;;3.78;1.52;;;;;;;;;;5992560;23;20107;-79
2023/03/29 10:23:43;;;;;;;1.35;1.00;;;;;;;;;;5994263;23;20019;-80
2023/03/29 10:26:22;;;;;;;1.60;1.10;;;;;;;;;;5993185;23;20047;-80
2023/03/29 10:28:51;;;;;;;3.78;1.23;;;;;;;;;;5995397;23;20027;-81
2023/03/29 10:31:19;;;;;;;3.42;1.50;;;;;;;;;;5992909;23;20027;-80
2023/03/29 10:33:50;;;;;;;2.00;1.42;;;;;;;;;;5993461;23;20511;-80
2023/03/29 10:36:17;;;;;;;3.13;1.25;;;;;;;;;;5992528;23;20093;-78
2023/03/29 10:38:44;;;;;;;1.73;1.10;;;;;;;;;;5958490;23;20027;-81
2023/03/29 10:41:12;;;;;;;4.63;1.60;;;;;;;;;;5964140;23;20030;-80
2023/03/29 10:43:44;;;;;;;1.27;1.17;;;;;;;;;;5987617;23;20022;-79
2023/03/29 10:46:18;;;;;;;5.55;2.35;;;;;;;;;;5964415;23;20069;-78
2023/03/29 10:48:49;;;;;;;1.83;1.35;;;;;;;;;;5988632;23;20055;-79
2023/03/29 10:51:17;;;;;;;2.65;1.38;;;;;;;;;;5964499;23;20069;-78
2023/03/29 10:53:44;;;;;;;3.50;1.30;;;;;;;;;;5965720;23;20058;-77
2023/03/29 10:56:17;;;;;;;2.47;1.23;;;;;;;;;;5965374;23;20096;-80
2023/03/29 10:59:15;;;;;;;2.85;1.60;;;;;;;;;;6033155;23;20028;-77
2023/03/29 11:02:03;;;;;;;1.88;1.27;;;;;;;;;;6032510;23;20066;-78
2023/03/29 11:04:47;;;;;;;1.77;1.05;;;;;;;;;;6033686;23;20031;-78
2023/03/29 11:07:31;;;;;;;4.22;1.20;;;;;;;;;;5964273;23;20079;-78
2023/03/29 11:10:03;;;;;;;3.08;1.35;;;;;;;;;;5965814;23;20102;-78
2023/03/29 11:12:36;;;;;;;5.43;1.58;;;;;;;;;;5988787;23;20454;-77
2023/03/29 11:15:55;;;;;;;4.50;1.15;;;;;;;;;;6011715;23;20077;-78
2023/03/29 11:18:41;;;;;;;2.92;1.02;;;;;;;;;;5925563;24;20036;-78
2023/03/29 11:21:20;;;;;;;3.05;1.50;;;;;;;;;;5905296;24;20028;-78
2023/03/29 11:24:12;;;;;;;3.58;1.17;;;;;;;;;;5994252;23;20027;-77
2023/03/29 11:27:06;;;;;;;3.83;1.30;;;;;;;;;;6011472;23;20037;-78
2023/03/29 11:29:59;;;;;;;4.43;1.40;;;;;;;;;;6006215;23;20562;-78
2023/03/29 11:33:17;;;;;;;2.50;1.42;;;;;;;;;;6038806;23;20462;-78
2023/03/29 11:35:50;;;;;;;3.40;1.45;;;;;;;;;;5966265;23;20023;-78
2023/03/29 11:38:42;;;;;;;4.40;1.60;;;;;;;;;;6013084;23;20026;-77
2023/03/29 11:41:16;;;;;;;4.05;1.50;;;;;;;;;;6034815;23;20027;-78
2023/03/29 11:43:50;;;;;;;1.83;1.40;;;;;;;;;;5989230;23;20027;-78
2023/03/29 11:46:40;;;;;;;1.15;1.00;;;;;;;;;;5988337;23;20106;-78
2023/03/29 11:49:28;;;;;;;4.00;1.20;;;;;;;;;;5991518;23;20045;-79
2023/03/29 11:52:35;;;;;;;2.60;1.27;;;;;;;;;;6011050;23;20029;-77
2023/03/29 11:55:03;;;;;;;3.85;1.10;;;;;;;;;;5986929;23;20059;-78
2023/03/29 11:57:35;;;;;;;1.63;1.20;;;;;;;;;;6010769;23;20439;-78
2023/03/29 12:00:33;;;;;;;1.75;1.27;;;;;;;;;;5964519;23;20024;-78
2023/03/29 12:03:09;;;;;;;1.70;1.00;;;;;;;;;;5991197;23;20111;-80
2023/03/29 12:05:44;;;;;;;3.17;1.25;;;;;;;;;;6010840;23;20059;-78
2023/03/29 12:08:43;;;;;;;3.08;0.90;;;;;;;;;;5966413;23;20489;-79
2023/03/29 12:11:16;;;;;;;4.30;1.60;;;;;;;;;;5966112;23;20034;-77
2023/03/29 12:13:51;;;;;;;;;;;;;;;;;;6034341;23;20362;-78
2023/03/29 12:16:43;;;;;;;1.10;1.00;;;;;;;;;;5987198;23;19924;-77
2023/03/29 12:19:18;;;;;;;3.03;1.10;;;;;;;;;;5967348;23;20027;-77
2023/03/29 12:21:45;;;;;;;2.67;1.05;;;;;;;;;;5965267;23;20126;-77
2023/03/29 12:24:14;;;;;;;3.40;1.33;;;;;;;;;;5965850;23;20023;-78
2023/03/29 12:26:52;;;;;;;1.92;1.50;;;;;;;;;;5965864;23;20543;-80
2023/03/29 12:29:28;;;;;;;5.97;1.27;;;;;;;;;;5966092;23;20102;-78
2023/03/29 12:32:03;;;;;;;2.78;1.42;;;;;;;;;;6033189;23;20120;-79
2023/03/29 12:35:05;;;;;;;1.40;1.10;;;;;;;;;;5986574;23;20595;-78
2023/03/29 12:37:46;;;;;;;1.25;0.82;;;;;;;;;;5951984;23;20062;-78
2023/03/29 12:40:14;;;;;;;2.63;1.45;;;;;;;;;;6009817;23;20031;-79
2023/03/29 12:42:51;;;;;;;2.75;1.65;;;;;;;;;;5964077;23;20023;-79
2023/03/29 12:45:20;;;;;;;1.73;1.00;;;;;;;;;;5964440;23;20019;-79
2023/03/29 12:47:48;;;;;;;1.70;1.10;;;;;;;;;;5965438;23;20358;-79
2023/03/29 12:50:23;;;;;;;2.42;1.38;;;;;;;;;;5965959;23;20019;-79
2023/03/29 12:52:50;;;;;;;1.40;1.00;;;;;;;;;;5991075;23;20035;-79
2023/03/29 12:55:28;;;;;;;1.70;1.40;;;;;;;;;;5967901;23;20029;-79
2023/03/29 12:58:07;;;;;;;3.13;1.63;;;;;;;;;;5968408;23;20102;-79
2023/03/29 13:00:44;;;;;;;5.25;1.70;;;;;;;;;;5965610;23;20020;-79
2023/03/29 13:03:28;;;;;;;2.25;1.20;;;;;;;;;;5965972;23;20042;-79
2023/03/29 13:06:03;;;;;;;4.05;1.63;;;;;;;;;;5966176;23;20395;-79
2023/03/29 13:08:42;;;;;;;4.68;1.50;;;;;;;;;;5967049;23;20062;-79
2023/03/29 13:11:24;;;;;;;2.55;1.75;;;;;;;;;;5965756;23;20099;-79
2023/03/29 13:13:51;;;;;;;2.50;1.35;;;;;;;;;;5989695;23;20105;-79
2023/03/29 13:16:28;;;;;;;2.72;1.48;;;;;;;;;;6011553;23;20103;-79
2023/03/29 13:19:14;;;;;;;7.07;1.50;;;;;;;;;;5965769;23;20046;-79
2023/03/29 13:21:54;;;;;;;3.42;1.45;;;;;;;;;;5969616;23;20069;-79
2023/03/29 13:24:40;;;;;;;1.80;1.08;;;;;;;;;;5968879;23;20038;-79
2023/03/29 13:27:06;;;;;;;5.78;1.05;;;;;;;;;;5991412;23;20020;-79
2023/03/29 13:29:58;;;;;;;3.58;0.90;;;;;;;;;;6036996;23;20023;-79
2023/03/29 13:32:47;;;;;;;1.90;0.75;;;;;;;;;;6013615;23;20331;-78
2023/03/29 13:35:26;;;;;;;3.10;0.80;;;;;;;;;;6013786;23;20027;-78
2023/03/29 13:37:59;;;;;;;2.67;0.90;;;;;;;;;;6036689;23;20030;-79
2023/03/29 13:40:29;;;;;;;1.73;0.80;;;;;;;;;;6036962;23;20106;-79
2023/03/29 13:43:17;;;;;;;3.42;0.70;;;;;;;;;;6039315;23;20109;-80
2023/03/29 13:46:05;;;;;;;1.15;0.95;;;;;;;;;;5960460;23;20023;-79
2023/03/29 13:48:35;;;;;;;5.43;1.27;;;;;;;;;;5992476;23;20030;-79
2023/03/29 13:51:07;;;;;;;4.28;1.98;;;;;;;;;;6041044;23;20027;-79
2023/03/29 13:54:00;;;;;;;4.82;3.28;;;;;;;;;;5993123;23;20030;-80
2023/03/29 13:56:59;;;;;;;1.63;0.85;;;;;;;;;;5998266;23;20029;-79
2023/03/29 13:59:34;;;;;;;3.70;1.80;;;;;;;;;;5995995;23;20027;-79
2023/03/29 14:02:01;;;;;;;2.65;1.48;;;;;;;;;;5970682;23;20085;-80
2023/03/29 14:04:38;;;;;;;2.65;1.15;;;;;;;;;;5992873;23;20019;-79
2023/03/29 14:07:05;;;;;;;2.67;0.93;;;;;;;;;;5969668;23;20049;-80
2023/03/29 14:09:33;;;;;;;3.35;1.17;;;;;;;;;;5969101;23;20055;-81
2023/03/29 14:12:00;;;;;;;1.08;0.70;;;;;;;;;;5968836;23;20362;-79
2023/03/29 14:14:28;;;;;;;1.55;0.80;;;;;;;;;;5969280;23;20024;-80
2023/03/29 14:16:55;;;;;;;3.72;1.17;;;;;;;;;;5968790;23;20433;-79
2023/03/29 14:19:33;;;;;;;4.03;1.05;;;;;;;;;;5968468;23;20034;-79
2023/03/29 14:22:01;;;;;;;2.05;0.70;;;;;;;;;;5969036;23;20029;-79
2023/03/29 14:24:46;;;;;;;2.20;0.90;;;;;;;;;;5968412;23;20115;-80
2023/03/29 14:27:14;;;;;;;3.83;1.10;;;;;;;;;;5972008;23;20027;-79
2023/03/29 14:29:43;;;;;;;2.20;0.90;;;;;;;;;;5992690;23;20035;-79
2023/03/29 14:32:12;;;;;;;2.20;1.20;;;;;;;;;;5968955;23;20027;-79
2023/03/29 14:34:40;;;;;;;2.83;1.02;;;;;;;;;;5945905;23;20046;-79
2023/03/29 14:37:17;;;;;;;4.40;0.98;;;;;;;;;;5968053;23;20033;-79
2023/03/29 14:39:44;;;;;;;1.70;1.08;;;;;;;;;;5969058;23;20104;-79
2023/03/29 14:42:19;;;;;;;1.35;0.80;;;;;;;;;;5968295;23;20063;-79
2023/03/29 14:44:47;;;;;;;2.60;1.10;;;;;;;;;;5969941;23;20031;-79
2023/03/29 14:47:26;;;;;;;1.73;0.82;;;;;;;;;;5969072;23;20092;-79
2023/03/29 14:49:55;;;;;;;9.50;1.65;;;;;;;;;;5968297;23;20061;-79
2023/03/29 14:52:22;;;;;;;2.13;1.00;;;;;;;;;;5968477;23;20027;-79
2023/03/29 14:54:51;;;;;;;2.10;1.33;;;;;;;;;;5968317;23;20059;-80
2023/03/29 14:57:18;;;;;;;2.40;1.35;;;;;;;;;;5969756;23;20023;-79
2023/03/29 14:59:55;;;;;;;2.22;0.98;;;;;;;;;;5990992;23;20106;-79
2023/03/29 15:02:29;;;;;;;1.73;0.90;;;;;;;;;;5972424;23;20046;-79
2023/03/29 15:05:04;;;;;;;3.83;1.20;;;;;;;;;;6018116;23;20033;-79
2023/03/29 15:07:32;;;;;;;4.15;1.58;;;;;;;;;;5972859;23;20035;-80
2023/03/29 15:10:00;;;;;;;2.42;1.02;;;;;;;;;;5968626;23;20023;-80
2023/03/29 15:12:30;;;;;;;2.22;1.30;;;;;;;;;;5991373;23;20083;-80
2023/03/29 15:14:57;;;;;;;2.47;1.00;;;;;;;;;;5969143;23;20027;-80